Aviation Digital Data Service (ADDS)

Output produced by METARs form (1943 UTC 30 June 2015)
found at http://aviationweather.gov/adds/metars/
 
KDAG 301850Z AUTO 33006KT 10SM CLR 40/08 A2990 RMK AO2 SLP090 T04000078
KDAG 301720Z 3018/0118 31008KT P6SM SCT150 SCT220 
     FM302000 06008KT P6SM SCT120 SCT150 BKN220 
     FM010100 25014KT P6SM SCT120 SCT150 BKN220
       
KEDW 301858Z VRB03KT 70SM FEW090 FEW170 BKN300 38/09 A2993 RMK AO2A SLP104 CONTRAILS T03790094
TAF KEDW 3018/0200 VRB05KT 9999 FEW100 SCT160 BKN300 QNH2993INS 
     BECMG 3020/3021 21012G18KT 9999 SCT100 BKN300 QNH2987INS 
     BECMG 3023/3024 21020G30KT 9999 SCT120 BKN300 510009 QNH2985INS 
     BECMG 0102/0103 24006KT 9999 FEW100 BKN250 QNH2984INS 
     BECMG 0120/0121 21012G18KT 9000 -SHRA SCT100 BKN150 QNH2991INS TX40/0122Z TN25/0113Z
       
KVCV 301935Z AUTO 00000KT 10SM CLR 38/06 A2997 RMK AO2
KONT 301853Z 24007KT 10SM FEW100 BKN250 34/11 A2990 RMK AO2 SLP102 T03440111
KONT 301736Z 3018/0124 VRB04KT P6SM SCT150 
     FM302000 26010G20KT P6SM BKN150 
     FM010400 VRB05KT P6SM SCT150 
     FM012000 26010G20KT P6SM BKN150
       
KNID 301856Z 03006KT 10SM FEW120 FEW200 SCT300 41/07 A2992 RMK AO2 SLP102 CONTRAILS T04060067 $
TAF KNID 3015/0115 VRB05KT 9999 FEW200 BKN280 QNH2988INS 
     BECMG 3019/3021 15008G16KT FEW100 FEW220 SCT280 QNH2980INS WND 100V190 
     BECMG 3023/0101 19012G22KT 9999 SCT100 BKN280 510005 QNH2982INS WND 130V220 
     BECMG 0102/0104 20007KT 9999 FEW180 BKN280 500000 QNH2984INS T43/3022Z T25/0112Z
       
KSNA 301853Z 20010KT 10SM FEW100 SCT150 26/17 A2990 RMK AO2 SLP122 T02560172
KSNA 301736Z 3018/0118 24007KT P6SM SCT150 
     FM302000 23010KT P6SM SCT150 
     FM010600 22005KT P6SM SCT008 
     FM011200 VRB05KT 5SM HZ BKN005 
     FM011700 VRB05KT P6SM SCT012
       
KSAN 301851Z 21005KT 10SM FEW010 SCT100 BKN220 25/17 A2993 RMK AO2 SLP135 T02500172 $
KSAN 301736Z 3018/0124 VRB03KT P6SM SCT010 BKN150 
     FM301900 28009KT P6SM BKN150 
     FM010700 VRB04KT P6SM BKN010 
     FM011700 VRB05KT P6SM SCT010 
     FM012000 28009KT P6SM SCT150
       
KNXP 301856Z AUTO 14011G16KT 10SM CLR 39/11 A2998 RMK AO2 SLP109 T03940111
TAF KNXP 3015/0115 VRB05KT 9999 FEW080 BKN250 QNH2984INS 
     BECMG 3023/0101 19009KT 9999 SCT250 QNH2982INS 
     TEMPO 0101/0107 22011G19KT 
     FM010730 VRB05KT 9999 SCT150 BKN250 QNH2989INS T39/3023Z T28/0113Z
       
KPSP 301853Z 11010KT 10SM CLR 38/19 A2989 RMK AO2 SLP115 T03780189
KPSP 301736Z 3018/0118 10010G15KT P6SM SCT150 
     FM301900 10010KT P6SM SCT150 
     FM010300 32010G18KT P6SM FEW150 
     FM010700 01006KT P6SM SCT200
       
KLAX 301853Z 26009KT 10SM FEW095 SCT160 SCT250 24/18 A2990 RMK AO2 SLP125 T02390178 $
KLAX 301737Z 3018/0124 26006KT P6SM SCT150 BKN250 
     FM302000 26012KT P6SM BKN250 
     FM010500 VRB03KT P6SM SCT250 
     FM011100 VRB03KT P6SM FEW010 SCT250 
     FM011300 19005KT P6SM BKN009 
     FM011700 25007KT P6SM SCT010 BKN250 
     FM012000 25011KT P6SM SCT150 BKN250
       
KCNO 301853Z COR 27007KT 10SM FEW120 BKN180 36/15 A2989 RMK AO2 SLP115 T03560150
KSMO 301851Z 23008KT 10SM CLR 25/18 A2990 RMK AO2 SLP124 T02500178
KLGB 301853Z 17007KT 10SM SCT250 27/14 A2990 RMK AO2 SLP123 TCU DSNT NE-E T02720144
KLGB 301737Z 3018/0118 19007KT P6SM BKN250 
     FM010100 31008KT P6SM BKN250 
     FM010500 VRB03KT P6SM BKN250 
     FM011300 19005KT P6SM BKN009 
     FM011600 18007KT P6SM SCT010 BKN250
       
KVNY 301851Z 10SM CLR 34/14 A2990 RMK AO2 SLP112 T03390139
KVNY 301737Z 3018/0118 VRB03KT P6SM SCT250 
     FM302000 14008KT P6SM SCT250 
     FM010200 VRB03KT P6SM SCT250
       
KBUR 301853Z 20008KT 10SM CLR 32/14 A2990 RMK AO2 SLP108 T03170139
KBUR 301737Z 3018/0118 12006KT P6SM SCT250 
     FM302100 17008KT P6SM SCT250 
     FM010500 VRB03KT P6SM SCT250
       
KBFL 301854Z 32007KT 10SM CLR 36/14 A2985 RMK AO2 SLP100 T03610139
KBFL 301720Z 3018/0118 VRB04KT P6SM SCT150 BKN200 
     FM302000 30009KT P6SM SCT150 BKN200 
     FM010300 34006KT P6SM SCT150 BKN200 
     FM010800 VRB04KT P6SM SCT150 BKN200
       
KPMD 301853Z AUTO VRB04KT 10SM CLR 38/09 A2996 RMK AO2 SLP106 T03780094 $
KPMD 301737Z 3018/0118 22007KT P6SM BKN250 
     FM302100 24014KT P6SM SCT250 
     FM302300 24020G28KT P6SM BKN250 
     FM010300 26012KT P6SM BKN250 
     FM010700 20007KT P6SM SCT150 BKN250
       
KOXR 301851Z 26008KT 10SM CLR 23/15 A2990 RMK AO2 SLP125 T02330150
KOXR 301737Z 3018/0118 25007KT P6SM SCT250 
     FM301900 27007KT P6SM SCT250 
     FM302100 27012KT P6SM SCT010 SCT250 
     TEMPO 3021/0101 BKN007 
     FM010100 27007KT 6SM BR BKN007 
     FM010700 VRB03KT P6SM SCT007 SCT150 BKN250
       
KWJF 301856Z 09005KT 10SM CLR 39/10 A2995 RMK AO2 SLP111 T03890100
KWJF 301737Z 3018/0118 21007KT P6SM BKN250 
     FM302000 23010KT P6SM SCT250 
     FM302200 24018G24KT P6SM BKN250 
     FM010200 25012KT P6SM BKN250 
     FM010900 23007KT P6SM SCT150 BKN250
       
KCMA 301855Z 22008KT 10SM CLR 26/16 A2990 RMK AO2 SLP131 T02610161
KFAT 301853Z VRB03KT 10SM FEW080 BKN250 36/11 A2986 RMK AO2 SLP106 MTNS OBSC HZ DNST N-E-S CU OMTNS N-E-S T03560106
KFAT 301720Z 3018/0118 31007KT P6SM SCT150 BKN200
       
KEED 301856Z AUTO 20016KT 10SM CLR 42/13 A2984 RMK AO2 SLP061 T04170128 PNO $
KEED 301720Z 3018/0118 19008KT P6SM SCT130 
     FM010300 24010KT P6SM SCT130 BKN220
       
KLSV 301858Z AUTO VRB01KT 10SM CLR 40/11 A2987 RMK AO2 SLP082 T04040114 $
TAF KLSV 3017/0123 24009KT 9999 FEW170 QNH2982INS 
     BECMG 3020/3021 16012KT 9999 SCT150 QNH2976INS 
     BECMG 0103/0104 18009KT 9999 FEW150 QNH2978INS 
     BECMG 0119/0120 19012KT 9999 VCTS SCT130CB QNH2980INS TX44/3022Z TN31/0112Z
       
KLAS 301856Z 18005KT 10SM FEW110 SCT160 BKN220 41/08 A2986 RMK AO2 SLP076 TCU DSNT N T04110083
KLAS 301720Z 3018/0118 15006KT P6SM FEW120 SCT150 BKN220 
     FM010200 21010KT P6SM SCT120 BKN220 
     FM011500 15006KT P6SM SCT120 BKN220
       
KHII 301910Z AUTO 15010G17KT 10SM CLR 41/14 A2983 RMK AO2
KIFP 301935Z AUTO 20011G19KT 10SM CLR 43/14 A2980 RMK AO2
KIFP 301720Z 3018/0118 22011KT P6SM SCT130 
     FM010500 15007KT P6SM SCT130 BKN200